Time;durP1;ratioP1;P1;durP2;ratioP2;P2;SDS_P1;SDS_P2;PMS_P1;PMS_P2;Temp;Humidity;BMP_temperature;BMP_pressure;BME280_temperature;BME280_humidity;BME280_pressure;Samples;Min_cycle;Max_cycle;Signal;HPM_P1;HPM_P2
2021/12/03 00:00:47;;;;;;;14.10;8.03;;;;;;;1.29;89.89;98195.72;5064735;28;20581;-58
2021/12/03 00:03:14;;;;;;;15.63;7.93;;;;;;;1.31;89.79;98204.16;5069838;28;20521;-57
2021/12/03 00:05:43;;;;;;;15.03;7.97;;;;;;;1.25;89.62;98214.84;5071537;28;20190;-58
2021/12/03 00:08:10;;;;;;;14.70;8.33;;;;;;;1.26;89.76;98221.66;5071547;28;20269;-58
2021/12/03 00:10:38;;;;;;;18.63;8.23;;;;;;;1.25;89.51;98220.00;5069340;28;20312;-57
2021/12/03 00:13:06;;;;;;;14.57;8.10;;;;;;;1.24;90.23;98236.34;5071583;28;20188;-57
2021/12/03 00:15:35;;;;;;;19.53;7.90;;;;;;;1.25;89.87;98238.00;5065143;28;20718;-57
2021/12/03 00:18:02;;;;;;;15.37;7.80;;;;;;;1.16;88.62;98241.97;5071406;28;20213;-57
2021/12/03 00:20:32;;;;;;;19.67;8.57;;;;;;;1.20;89.65;98251.13;5070392;28;20245;-57
2021/12/03 00:23:01;;;;;;;14.03;7.93;;;;;;;1.19;90.13;98252.06;5077743;28;20222;-57
2021/12/03 00:25:28;;;;;;;16.40;9.00;;;;;;;1.17;90.11;98256.47;5091645;28;20269;-57
2021/12/03 00:27:55;;;;;;;14.20;8.20;;;;;;;1.21;90.73;98268.22;5092150;28;20268;-57
2021/12/03 00:30:21;;;;;;;16.43;8.47;;;;;;;1.21;89.05;98268.22;5074566;28;20297;-57
2021/12/03 00:32:49;;;;;;;15.73;8.17;;;;;;;1.01;88.10;98262.66;5071305;28;20190;-58
2021/12/03 00:35:17;;;;;;;17.73;8.03;;;;;;;1.11;89.65;98270.56;5070312;28;20213;-58
2021/12/03 00:37:47;;;;;;;15.67;7.90;;;;;;;1.15;90.32;98273.75;5070727;28;20270;-57
2021/12/03 00:40:19;;;;;;;19.03;9.73;;;;;;;1.15;89.85;98276.31;5070824;28;20279;-58
2021/12/03 00:42:45;;;;;;;17.70;8.87;;;;;;;1.13;90.03;98271.28;5071702;28;20190;-55
2021/12/03 00:45:14;;;;;;;16.93;8.83;;;;;;;1.15;90.09;98276.31;5065210;28;20190;-58
2021/12/03 00:47:43;;;;;;;14.30;8.57;;;;;;;1.13;89.52;98286.72;5071268;28;20194;-58
2021/12/03 00:50:11;;;;;;;18.70;9.03;;;;;;;1.10;88.10;98283.50;5069185;28;20217;-57
2021/12/03 00:52:38;;;;;;;15.93;8.47;;;;;;;1.14;87.09;98295.25;5069925;28;20289;-58
2021/12/03 00:55:07;;;;;;;18.40;7.90;;;;;;;1.07;87.67;98294.00;5070992;28;20206;-58
2021/12/03 00:57:35;;;;;;;18.60;8.93;;;;;;;1.03;87.97;98296.78;5068821;28;20210;-57
2021/12/03 01:00:03;;;;;;;16.00;8.70;;;;;;;1.05;86.67;98295.88;5052954;28;20211;-57
2021/12/03 01:02:30;;;;;;;18.30;9.07;;;;;;;1.01;87.89;98305.50;5060165;28;20199;-58
2021/12/03 01:04:57;;;;;;;18.67;8.53;;;;;;;0.91;87.24;98310.41;5070576;28;20290;-58
2021/12/03 01:07:24;;;;;;;18.67;8.97;;;;;;;0.96;87.33;98302.41;5070981;28;20203;-59
2021/12/03 01:09:50;;;;;;;14.33;7.83;;;;;;;1.00;87.55;98309.00;5064681;28;20218;-55
2021/12/03 01:12:17;;;;;;;13.17;7.73;;;;;;;0.98;88.07;98311.69;5067348;28;20194;-61
2021/12/03 01:14:45;;;;;;;16.77;8.67;;;;;;;0.99;88.61;98313.31;5069788;28;20261;-59
2021/12/03 01:17:12;;;;;;;15.07;7.87;;;;;;;1.03;88.58;98317.34;5065205;28;20213;-59
2021/12/03 01:19:39;;;;;;;18.27;8.30;;;;;;;1.00;88.99;98314.13;5069914;28;20210;-59
2021/12/03 01:22:06;;;;;;;19.40;8.77;;;;;;;0.97;87.83;98320.31;5070314;28;20188;-59
2021/12/03 01:24:32;;;;;;;18.70;8.17;;;;;;;0.96;87.41;98318.66;5074520;28;20596;-59
2021/12/03 01:27:00;;;;;;;14.20;8.07;;;;;;;0.98;88.71;98323.69;5071222;28;20262;-59
2021/12/03 01:29:27;;;;;;;16.00;8.10;;;;;;;0.95;88.35;98317.00;5069131;28;20565;-58
2021/12/03 01:31:56;;;;;;;15.53;8.07;;;;;;;0.90;88.44;98313.91;5067349;28;20207;-59
2021/12/03 01:34:24;;;;;;;16.47;7.90;;;;;;;0.85;88.14;98314.19;5070174;28;20214;-59
2021/12/03 01:36:51;;;;;;;16.83;8.20;;;;;;;0.83;87.58;98320.34;5069648;28;20265;-56
2021/12/03 01:39:18;;;;;;;14.40;7.23;;;;;;;0.80;88.03;98316.22;5066539;28;20552;-58
2021/12/03 01:41:45;;;;;;;14.73;8.20;;;;;;;0.77;88.66;98320.75;5065799;28;20193;-59
2021/12/03 01:44:12;;;;;;;13.60;7.07;;;;;;;0.72;88.64;98310.72;5068827;28;20279;-59
2021/12/03 01:46:39;;;;;;;12.77;6.97;;;;;;;0.68;89.02;98316.97;5068878;28;20198;-59
2021/12/03 01:49:09;;;;;;;15.80;7.27;;;;;;;0.69;89.91;98326.34;5069638;28;20627;-59
2021/12/03 01:51:36;;;;;;;17.83;7.90;;;;;;;0.68;89.40;98327.25;5068158;28;20185;-58
2021/12/03 01:54:03;;;;;;;17.20;8.30;;;;;;;0.67;88.96;98325.59;5068412;28;20623;-59
2021/12/03 01:56:30;;;;;;;13.70;7.93;;;;;;;0.66;89.24;98326.53;5066776;28;20222;-59
2021/12/03 01:58:57;;;;;;;16.10;8.60;;;;;;;0.69;89.15;98328.91;5069023;28;20269;-58
2021/12/03 02:01:27;;;;;;;18.10;8.73;;;;;;;0.73;89.24;98328.63;5058995;28;20201;-59
2021/12/03 02:03:56;;;;;;;16.27;7.63;;;;;;;0.77;88.71;98336.16;5067670;28;20226;-59
2021/12/03 02:06:25;;;;;;;19.27;8.77;;;;;;;0.74;88.52;98326.88;5069417;28;20269;-59
2021/12/03 02:08:53;;;;;;;16.23;8.57;;;;;;;0.69;87.96;98323.78;5067105;28;20200;-58
2021/12/03 02:11:20;;;;;;;17.13;8.67;;;;;;;0.62;88.36;98328.47;5068962;28;20225;-59
2021/12/03 02:13:47;;;;;;;16.90;8.60;;;;;;;0.51;89.24;98320.59;5065566;28;20315;-58
2021/12/03 02:16:16;;;;;;;17.67;8.60;;;;;;;0.38;89.38;98323.13;5063648;28;20513;-57
2021/12/03 02:18:43;;;;;;;13.37;7.17;;;;;;;0.31;89.27;98327.78;5063403;28;20275;-55
2021/12/03 02:21:13;;;;;;;15.53;8.23;;;;;;;0.29;90.13;98324.47;5072268;28;20694;-56
2021/12/03 02:23:40;;;;;;;12.63;8.17;;;;;;;0.29;90.51;98329.63;5073703;28;20632;-57
2021/12/03 02:26:07;;;;;;;21.27;9.17;;;;;;;0.37;90.85;98331.75;5072589;28;20287;-55
2021/12/03 02:28:40;;;;;;;16.33;8.93;;;;;;;0.39;90.26;98335.84;5073650;28;20182;-57
2021/12/03 02:31:09;;;;;;;17.57;8.63;;;;;;;0.39;90.32;98333.28;5072967;28;20213;-56
2021/12/03 02:33:37;;;;;;;15.20;8.53;;;;;;;0.40;90.53;98344.38;5061811;28;20272;-58
2021/12/03 02:36:05;;;;;;;20.63;9.93;;;;;;;0.38;90.23;98344.47;5072701;28;20212;-57
2021/12/03 02:38:34;;;;;;;19.67;9.53;;;;;;;0.36;89.75;98346.31;5072867;28;20199;-57
2021/12/03 02:41:01;;;;;;;16.03;8.67;;;;;;;0.29;89.89;98339.88;5072618;28;20544;-55
2021/12/03 02:43:28;;;;;;;17.47;8.87;;;;;;;0.20;89.76;98338.72;5073436;28;20189;-57
2021/12/03 02:45:57;;;;;;;15.70;8.73;;;;;;;0.18;90.45;98352.53;5070718;28;20712;-54
2021/12/03 02:48:25;;;;;;;17.17;8.70;;;;;;;0.13;91.11;98353.63;5073278;28;20189;-57
2021/12/03 02:50:51;;;;;;;19.57;9.53;;;;;;;0.20;91.23;98359.25;5062522;28;20690;-58
2021/12/03 02:53:18;;;;;;;15.67;8.37;;;;;;;0.22;90.40;98359.16;5073049;28;20198;-57
2021/12/03 02:55:47;;;;;;;15.73;9.17;;;;;;;0.19;90.27;98361.88;5073004;28;20210;-57
2021/12/03 02:58:14;;;;;;;22.00;9.40;;;;;;;0.17;90.36;98368.84;5072825;28;20189;-57
2021/12/03 03:00:45;;;;;;;17.43;9.13;;;;;;;0.16;90.25;98373.19;5072369;28;20623;-57
2021/12/03 03:03:12;;;;;;;21.20;9.33;;;;;;;0.19;90.64;98383.28;5072604;28;20702;-58
2021/12/03 03:05:39;;;;;;;21.30;10.67;;;;;;;0.17;90.87;98379.97;5067782;28;20194;-57
2021/12/03 03:08:06;;;;;;;21.30;10.10;;;;;;;0.23;90.93;98391.59;5067105;28;20302;-59
2021/12/03 03:10:40;;;;;;;19.13;9.57;;;;;;;0.27;91.19;98385.38;5071950;28;20216;-55
2021/12/03 03:13:08;;;;;;;18.10;9.30;;;;;;;0.29;90.90;98389.50;5073057;28;20188;-56
2021/12/03 03:15:38;;;;;;;21.57;10.37;;;;;;;0.35;88.86;98384.94;5071601;28;20703;-54
2021/12/03 03:18:11;;;;;;;20.90;9.60;;;;;;;0.34;89.53;98396.91;5072753;28;20190;-55
2021/12/03 03:20:39;;;;;;;16.90;8.77;;;;;;;0.37;89.44;98396.75;5069938;28;20227;-55
2021/12/03 03:23:07;;;;;;;17.33;9.43;;;;;;;0.43;89.56;98398.94;5063158;28;20204;-56
2021/12/03 03:25:34;;;;;;;18.17;9.90;;;;;;;0.44;89.67;98400.59;5070211;28;20192;-54
2021/12/03 03:28:02;;;;;;;17.17;9.30;;;;;;;0.45;89.15;98396.28;5072245;28;20663;-56
2021/12/03 03:30:30;;;;;;;16.17;9.00;;;;;;;0.49;86.78;98405.47;5071659;28;20718;-55
2021/12/03 03:32:57;;;;;;;18.27;10.27;;;;;;;0.44;88.31;98407.47;5070155;28;20592;-56
2021/12/03 03:35:24;;;;;;;20.37;9.43;;;;;;;0.37;88.40;98408.78;5072586;28;20288;-56
2021/12/03 03:37:50;;;;;;;18.23;9.20;;;;;;;0.34;88.90;98421.78;5071441;28;20276;-57
2021/12/03 03:40:18;;;;;;;16.97;9.20;;;;;;;0.32;89.00;98416.72;5062461;28;20218;-55
2021/12/03 03:42:45;;;;;;;21.60;9.90;;;;;;;0.33;89.21;98415.81;5078654;28;20193;-55
2021/12/03 03:45:14;;;;;;;18.13;9.47;;;;;;;0.38;89.79;98420.69;5071996;28;20273;-57
2021/12/03 03:47:44;;;;;;;20.93;8.80;;;;;;;0.33;87.69;98420.13;5072265;28;20691;-57
2021/12/03 03:50:13;;;;;;;15.27;9.30;;;;;;;0.35;89.43;98418.31;5071044;28;20204;-56
2021/12/03 03:52:41;;;;;;;18.60;8.87;;;;;;;0.35;89.54;98423.44;5070793;28;20677;-55
2021/12/03 03:55:09;;;;;;;19.23;9.60;;;;;;;0.33;89.25;98423.50;5066775;28;20635;-57
2021/12/03 03:57:36;;;;;;;19.80;9.00;;;;;;;0.35;88.85;98431.16;5062347;28;20288;-60
2021/12/03 04:00:05;;;;;;;16.17;9.23;;;;;;;0.26;89.09;98433.34;5068830;28;20210;-56
2021/12/03 04:02:38;;;;;;;17.60;9.23;;;;;;;0.21;89.88;98429.38;5071620;28;20240;-55
2021/12/03 04:05:07;;;;;;;18.23;9.07;;;;;;;0.18;88.80;98437.25;5071769;28;20185;-54
2021/12/03 04:07:34;;;;;;;20.03;9.33;;;;;;;0.13;89.46;98424.69;5071634;28;20189;-57
2021/12/03 04:10:01;;;;;;;16.73;9.13;;;;;;;0.06;89.41;98431.09;5070464;28;20679;-54
2021/12/03 04:12:28;;;;;;;17.97;8.30;;;;;;;0.01;89.54;98438.25;5060430;28;20200;-56
2021/12/03 04:14:55;;;;;;;16.47;8.77;;;;;;;-0.01;90.80;98435.78;5064768;28;20570;-54
2021/12/03 04:17:22;;;;;;;19.90;8.47;;;;;;;0.02;90.35;98440.69;5071297;28;20738;-56
2021/12/03 04:19:48;;;;;;;20.27;8.67;;;;;;;0.03;90.12;98431.28;5070566;28;20211;-56
2021/12/03 04:22:23;;;;;;;22.33;9.20;;;;;;;0.07;89.87;98437.88;5070800;28;20260;-56
2021/12/03 04:24:50;;;;;;;17.80;10.43;;;;;;;0.07;89.68;98441.25;5071000;28;20434;-56
2021/12/03 04:27:17;;;;;;;14.80;8.40;;;;;;;0.03;89.56;98441.53;5071321;28;20279;-57
2021/12/03 04:29:44;;;;;;;15.13;8.43;;;;;;;0.03;89.50;98438.97;5058038;28;20210;-56
2021/12/03 04:32:12;;;;;;;14.60;7.90;;;;;;;-0.02;88.31;98442.63;5067812;28;20563;-56
2021/12/03 04:34:39;;;;;;;14.73;7.63;;;;;;;-0.03;87.87;98446.13;5071035;28;20201;-58
2021/12/03 04:37:06;;;;;;;13.07;7.27;;;;;;;-0.03;88.59;98447.88;5071123;28;20204;-56
2021/12/03 04:39:34;;;;;;;13.80;7.63;;;;;;;-0.01;88.75;98453.75;5069336;28;20205;-57
2021/12/03 04:42:02;;;;;;;14.93;7.63;;;;;;;0.01;89.25;98451.88;5070542;28;20185;-54
2021/12/03 04:44:28;;;;;;;12.00;6.93;;;;;;;0.05;89.29;98460.25;5066137;28;20267;-56
2021/12/03 04:46:55;;;;;;;14.07;7.37;;;;;;;0.03;89.05;98451.81;5058195;28;20192;-55
2021/12/03 04:49:22;;;;;;;17.93;7.90;;;;;;;-0.03;89.45;98455.56;5069383;28;20229;-56
2021/12/03 04:51:48;;;;;;;15.67;8.10;;;;;;;-0.10;89.31;98465.34;5070029;28;20272;-56
2021/12/03 04:54:15;;;;;;;15.65;8.55;;;;;;;-0.13;89.31;98473.22;5071431;28;20509;-55
2021/12/03 04:56:43;;;;;;;13.03;7.00;;;;;;;-0.20;89.45;98471.91;5071728;28;20215;-54
2021/12/03 04:59:10;;;;;;;14.30;7.07;;;;;;;-0.23;89.24;98467.78;5057603;28;20201;-54
2021/12/03 05:01:38;;;;;;;14.47;6.63;;;;;;;-0.19;89.22;98474.41;5059103;28;20232;-57
2021/12/03 05:04:05;;;;;;;13.93;7.40;;;;;;;-0.14;89.28;98471.56;5071491;28;20197;-57
2021/12/03 05:06:52;;;;;;;13.50;6.93;;;;;;;-0.08;89.55;98485.78;5071467;28;20185;-57
2021/12/03 05:09:19;;;;;;;15.67;7.37;;;;;;;-0.01;89.54;98475.06;5071705;28;20280;-56
2021/12/03 05:11:48;;;;;;;14.37;6.93;;;;;;;0.05;89.06;98470.50;5070847;28;20276;-58
2021/12/03 05:14:14;;;;;;;11.47;6.20;;;;;;;0.16;89.17;98485.28;5071471;28;20625;-55
2021/12/03 05:16:41;;;;;;;10.13;6.47;;;;;;;0.13;87.96;98484.53;5071436;28;20227;-57
2021/12/03 05:19:08;;;;;;;11.40;6.23;;;;;;;0.16;88.14;98483.56;5071267;28;20737;-57
2021/12/03 05:21:35;;;;;;;18.67;11.47;;;;;;;0.19;88.52;98487.69;5070724;28;20219;-55
2021/12/03 05:24:03;;;;;;;14.30;7.30;;;;;;;0.21;87.89;98489.25;5070177;28;20661;-57
2021/12/03 05:26:30;;;;;;;21.53;12.23;;;;;;;0.21;87.20;98488.41;5071408;28;20186;-57
2021/12/03 05:28:58;;;;;;;13.60;7.10;;;;;;;0.26;88.39;98486.41;5071530;28;20188;-57
2021/12/03 05:31:25;;;;;;;13.43;6.43;;;;;;;0.30;88.48;98498.16;5070613;28;20665;-57
2021/12/03 05:33:52;;;;;;;26.50;12.77;;;;;;;0.35;86.46;98500.47;5071382;28;20268;-56
2021/12/03 05:36:19;;;;;;;26.30;11.67;;;;;;;0.34;85.94;98503.94;5071242;28;20213;-56
2021/12/03 05:38:46;;;;;;;12.27;6.70;;;;;;;0.35;85.06;98521.00;5071623;28;20223;-56
2021/12/03 05:41:12;;;;;;;12.37;7.90;;;;;;;0.31;85.42;98524.66;5070719;28;20243;-57
2021/12/03 05:43:39;;;;;;;13.20;7.27;;;;;;;0.27;85.23;98527.41;5071343;28;20308;-59
2021/12/03 05:46:07;;;;;;;10.90;5.50;;;;;;;0.29;85.30;98515.31;5070924;28;20272;-57
2021/12/03 05:48:34;;;;;;;12.00;5.20;;;;;;;0.32;85.41;98524.56;5071371;28;20273;-55
2021/12/03 05:51:01;;;;;;;7.60;4.73;;;;;;;0.32;85.05;98518.63;5070522;28;20645;-57
2021/12/03 05:53:28;;;;;;;9.70;4.30;;;;;;;0.34;85.25;98514.22;5072399;28;20601;-56
2021/12/03 05:55:55;;;;;;;9.23;6.05;;;;;;;0.36;85.01;98512.38;5073585;28;20525;-57
2021/12/03 05:58:21;;;;;;;11.33;5.13;;;;;;;0.37;85.28;98514.84;5074680;28;20237;-57
2021/12/03 06:00:49;;;;;;;11.97;4.87;;;;;;;0.39;85.13;98509.66;5074159;28;20216;-56
2021/12/03 06:03:18;;;;;;;8.70;4.80;;;;;;;0.39;84.96;98518.16;5074986;28;20195;-57
2021/12/03 06:05:45;;;;;;;10.67;6.47;;;;;;;0.42;85.34;98523.13;5074858;28;20183;-57
2021/12/03 06:08:11;;;;;;;17.93;8.43;;;;;;;0.43;84.98;98526.53;5074887;28;20273;-56
2021/12/03 06:10:38;;;;;;;11.43;4.43;;;;;;;0.42;85.04;98524.88;5073905;28;20646;-55
2021/12/03 06:13:06;;;;;;;13.20;4.27;;;;;;;0.41;83.74;98529.16;5074677;28;20193;-59
2021/12/03 06:15:33;;;;;;;9.60;3.97;;;;;;;0.31;82.32;98522.09;5073627;28;20296;-54
2021/12/03 06:17:59;;;;;;;6.10;3.10;;;;;;;0.36;81.77;98520.09;5074747;28;20195;-58
2021/12/03 06:20:28;;;;;;;8.43;3.67;;;;;;;0.41;80.53;98521.47;5073804;28;20249;-57
2021/12/03 06:22:55;;;;;;;13.17;4.53;;;;;;;0.38;82.77;98515.69;5074604;28;20284;-57
2021/12/03 06:25:22;;;;;;;8.90;4.43;;;;;;;0.34;83.40;98515.03;5074507;28;20214;-58
2021/12/03 06:27:49;;;;;;;8.80;3.80;;;;;;;0.26;83.59;98512.91;5074366;28;20269;-56
2021/12/03 06:30:18;;;;;;;8.97;4.73;;;;;;;0.19;83.84;98519.31;5073226;28;20239;-55
2021/12/03 06:32:46;;;;;;;14.77;5.07;;;;;;;0.13;84.63;98509.41;5074382;28;20194;-55
2021/12/03 06:35:15;;;;;;;11.77;6.13;;;;;;;0.02;85.09;98510.00;5074346;28;20188;-56
2021/12/03 06:37:43;;;;;;;9.07;4.60;;;;;;;-0.02;85.51;98505.97;5074325;28;20222;-57
2021/12/03 06:40:14;;;;;;;6.17;4.53;;;;;;;-0.07;85.83;98513.09;5073254;28;20216;-56
2021/12/03 06:42:41;;;;;;;7.70;4.70;;;;;;;-0.09;86.67;98517.50;5074174;28;20221;-57
2021/12/03 06:45:09;;;;;;;9.37;4.47;;;;;;;0.01;84.00;98518.59;5073925;28;20300;-54
2021/12/03 06:47:36;;;;;;;10.07;5.77;;;;;;;-0.05;83.93;98527.50;5074037;28;20187;-55
2021/12/03 06:50:04;;;;;;;12.17;4.93;;;;;;;0.03;84.18;98528.78;5073201;28;20213;-57
2021/12/03 06:52:32;;;;;;;11.00;7.33;;;;;;;0.01;86.24;98540.88;5073832;28;20239;-57
2021/12/03 06:55:03;;;;;;;10.50;6.20;;;;;;;-0.02;85.75;98535.00;5074006;28;20195;-56
2021/12/03 06:57:30;;;;;;;7.90;4.63;;;;;;;-0.02;84.65;98534.19;5073849;28;20245;-59
2021/12/03 06:59:57;;;;;;;14.07;9.20;;;;;;;0.02;85.60;98543.34;5052383;28;20804;-54
2021/12/03 07:02:24;;;;;;;10.43;6.27;;;;;;;0.03;85.26;98552.72;5052488;28;20230;-59
2021/12/03 07:04:51;;;;;;;8.17;4.27;;;;;;;0.04;85.86;98556.94;5053489;28;20189;-57
2021/12/03 07:07:18;;;;;;;14.90;7.03;;;;;;;0.07;86.81;98561.88;5053755;28;20209;-57
2021/12/03 07:09:45;;;;;;;11.97;7.77;;;;;;;0.13;87.00;98571.81;5052865;28;20206;-59
2021/12/03 07:12:13;;;;;;;8.37;4.50;;;;;;;0.20;85.92;98564.63;5053602;28;20282;-56
2021/12/03 07:14:40;;;;;;;9.23;5.20;;;;;;;0.24;85.31;98563.53;5053575;28;20241;-54
2021/12/03 07:17:07;;;;;;;8.53;4.17;;;;;;;0.30;85.58;98572.59;5053420;28;20224;-57
2021/12/03 07:19:34;;;;;;;8.10;3.70;;;;;;;0.32;81.84;98569.97;5052720;28;20269;-62
2021/12/03 07:22:01;;;;;;;16.10;8.20;;;;;;;0.41;84.53;98585.66;5053294;28;20563;-59
2021/12/03 07:24:28;;;;;;;13.27;8.03;;;;;;;0.39;84.69;98584.13;5053303;28;20269;-56
2021/12/03 07:26:55;;;;;;;8.67;4.47;;;;;;;0.49;83.43;98579.28;5053417;28;20215;-56
2021/12/03 07:29:23;;;;;;;10.70;3.60;;;;;;;0.51;80.88;98578.28;5053433;28;20212;-57
2021/12/03 07:31:50;;;;;;;6.60;3.60;;;;;;;0.54;78.62;98569.56;5052455;28;20595;-56
2021/12/03 07:34:17;;;;;;;6.53;3.80;;;;;;;0.63;80.84;98570.75;5052952;28;20200;-59
2021/12/03 07:36:44;;;;;;;8.23;3.73;;;;;;;0.59;80.69;98576.06;5053098;28;20288;-56
2021/12/03 07:39:11;;;;;;;5.70;3.40;;;;;;;0.66;82.31;98580.84;5053143;28;20184;-56
2021/12/03 07:41:40;;;;;;;11.90;3.90;;;;;;;0.61;81.33;98575.16;5052343;28;20245;-59
2021/12/03 07:44:09;;;;;;;7.37;4.03;;;;;;;0.67;81.16;98580.78;5065966;28;20201;-56
2021/12/03 07:46:37;;;;;;;9.03;3.77;;;;;;;0.70;81.17;98578.03;5072851;28;20188;-57
2021/12/03 07:49:05;;;;;;;9.03;3.87;;;;;;;0.80;79.58;98565.47;5071510;28;20705;-57
2021/12/03 07:51:31;;;;;;;8.10;3.77;;;;;;;0.87;78.17;98566.75;5071984;28;20213;-57
2021/12/03 07:53:58;;;;;;;6.17;4.00;;;;;;;0.88;77.54;98570.16;5072800;28;20194;-57
2021/12/03 07:56:25;;;;;;;8.70;3.97;;;;;;;0.88;78.98;98568.41;5072676;28;20216;-54
2021/12/03 07:58:52;;;;;;;7.47;4.20;;;;;;;0.97;78.11;98568.78;5072490;28;20239;-60
2021/12/03 08:01:19;;;;;;;6.43;4.17;;;;;;;1.02;78.02;98562.47;5071649;28;20210;-56
2021/12/03 08:03:47;;;;;;;6.67;4.27;;;;;;;1.06;79.25;98564.84;5072520;28;20884;-57
2021/12/03 08:06:14;;;;;;;7.40;4.47;;;;;;;0.95;79.60;98566.31;5072438;28;20232;-57
2021/12/03 08:08:41;;;;;;;11.33;5.23;;;;;;;0.82;78.69;98568.75;5072531;28;20185;-57
2021/12/03 08:11:08;;;;;;;9.00;5.80;;;;;;;0.71;79.31;98574.53;5071538;28;20237;-54
2021/12/03 08:13:35;;;;;;;7.90;4.53;;;;;;;0.63;79.64;98565.63;5072879;28;20272;-57
2021/12/03 08:16:03;;;;;;;9.03;4.40;;;;;;;0.50;80.52;98568.09;5071610;28;20191;-60
2021/12/03 08:18:30;;;;;;;7.63;4.07;;;;;;;0.44;80.25;98572.66;5072337;28;20235;-55
2021/12/03 08:21:02;;;;;;;8.97;4.87;;;;;;;0.39;80.23;98569.53;5071465;28;20214;-58
2021/12/03 08:23:29;;;;;;;7.20;4.47;;;;;;;0.35;81.11;98575.75;5072316;28;20180;-57
2021/12/03 08:25:57;;;;;;;6.87;4.47;;;;;;;0.33;80.85;98569.06;5072285;28;20243;-59
2021/12/03 08:28:23;;;;;;;5.93;3.90;;;;;;;0.44;78.54;98579.53;5071973;28;20236;-58
2021/12/03 08:30:51;;;;;;;8.73;3.70;;;;;;;0.55;78.33;98574.59;5071280;28;20268;-56
2021/12/03 08:33:18;;;;;;;7.70;4.10;;;;;;;0.58;79.49;98582.13;5072157;28;20213;-57
2021/12/03 08:35:45;;;;;;;9.97;4.17;;;;;;;0.58;78.71;98579.56;5071895;28;20220;-58
2021/12/03 08:38:13;;;;;;;10.00;5.60;;;;;;;0.61;77.61;98581.13;5071908;28;20338;-57
2021/12/03 08:40:40;;;;;;;6.67;4.40;;;;;;;0.52;78.46;98581.66;5069755;28;20732;-56
2021/12/03 08:43:07;;;;;;;9.40;4.17;;;;;;;0.59;76.12;98588.91;5071811;28;20185;-54
2021/12/03 08:45:35;;;;;;;6.73;4.33;;;;;;;0.58;78.47;98586.44;5071848;28;20186;-56
2021/12/03 08:48:02;;;;;;;10.30;3.50;;;;;;;0.59;77.37;98598.38;5072006;28;20558;-60
2021/12/03 08:50:33;;;;;;;8.60;3.70;;;;;;;0.65;77.63;98592.88;5071027;28;20220;-59
2021/12/03 08:53:12;;;;;;;7.47;3.30;;;;;;;0.70;77.64;98593.44;5072076;28;20193;-58
2021/12/03 08:55:41;;;;;;;16.30;4.03;;;;;;;0.71;78.23;98591.69;5071775;28;20188;-57
2021/12/03 08:58:09;;;;;;;7.60;3.40;;;;;;;0.72;76.48;98588.19;5071416;28;20209;-59
2021/12/03 09:00:36;;;;;;;9.50;3.97;;;;;;;0.78;77.31;98585.28;5070896;28;20690;-58
2021/12/03 09:03:04;;;;;;;6.27;3.50;;;;;;;0.78;76.84;98594.75;5070379;28;20247;-55
2021/12/03 09:05:32;;;;;;;7.07;3.63;;;;;;;0.84;76.84;98596.97;5071765;28;20235;-56
2021/12/03 09:08:00;;;;;;;8.63;3.57;;;;;;;0.84;76.77;98591.81;5071603;28;20708;-57
2021/12/03 09:10:26;;;;;;;8.57;3.30;;;;;;;0.97;75.10;98599.63;5070711;28;20741;-54
2021/12/03 09:12:55;;;;;;;6.93;3.10;;;;;;;1.01;73.44;98593.38;5071552;28;20243;-56
2021/12/03 09:15:26;;;;;;;6.00;3.37;;;;;;;0.99;75.30;98590.91;5071619;28;20701;-57
2021/12/03 09:20:44;;;;;;;5.93;3.13;;;;;;;1.01;74.43;98595.94;5062048;28;20302;-57
2021/12/03 09:23:15;;;;;;;4.50;2.63;;;;;;;1.08;75.61;98604.97;5070957;28;20199;-57
2021/12/03 09:25:48;;;;;;;5.30;2.90;;;;;;;1.21;74.01;98609.38;5071541;28;20228;-57
2021/12/03 09:28:16;;;;;;;6.53;3.13;;;;;;;1.29;73.90;98604.59;5074125;28;20546;-57
2021/12/03 09:30:44;;;;;;;6.33;2.80;;;;;;;1.52;72.88;98605.75;5074441;28;20214;-55
2021/12/03 09:33:14;;;;;;;4.50;2.70;;;;;;;1.64;74.30;98595.63;5075580;28;20229;-57
2021/12/03 09:35:45;;;;;;;6.83;3.07;;;;;;;1.72;73.00;98588.28;5075557;28;20211;-55
2021/12/03 09:38:12;;;;;;;4.73;2.77;;;;;;;1.84;72.51;98589.25;5075388;28;20224;-56
2021/12/03 09:40:40;;;;;;;5.50;3.17;;;;;;;1.75;70.19;98582.94;5074671;28;20722;-59
2021/12/03 09:43:07;;;;;;;6.33;3.83;;;;;;;1.65;72.40;98587.81;5075339;28;20183;-58
2021/12/03 09:45:37;;;;;;;7.00;3.10;;;;;;;1.62;72.41;98577.72;5075216;28;20187;-57
2021/12/03 09:48:14;;;;;;;6.33;2.80;;;;;;;1.70;73.19;98582.41;5075270;28;20651;-57
2021/12/03 09:50:41;;;;;;;7.13;3.37;;;;;;;1.63;73.34;98587.09;5074368;28;20209;-57
2021/12/03 09:53:22;;;;;;;6.07;3.10;;;;;;;1.67;72.62;98569.72;5075285;28;20186;-56
2021/12/03 09:55:49;;;;;;;7.90;3.47;;;;;;;1.72;71.95;98562.53;5074188;28;20186;-56
2021/12/03 09:58:28;;;;;;;7.50;3.77;;;;;;;1.74;72.19;98560.69;5074184;28;20740;-54
2021/12/03 10:01:01;;;;;;;6.70;3.30;;;;;;;1.76;73.68;98557.09;5071474;28;20271;-60
2021/12/03 10:03:47;;;;;;;5.83;2.90;;;;;;;1.85;72.31;98560.84;5074539;28;20195;-58
2021/12/03 10:14:38;;;;;;;7.33;3.23;;;;;;;2.08;70.79;98548.25;5074171;28;20713;-59
2021/12/03 10:20:05;;;;;;;4.50;2.50;;;;;;;2.02;70.36;98538.34;5069715;28;20217;-55
2021/12/03 10:34:03;;;;;;;2.73;2.20;;;;;;;2.13;67.17;98525.59;5071764;28;20883;-56
2021/12/03 10:39:26;;;;;;;3.13;1.90;;;;;;;2.29;66.24;98509.97;5068468;28;20602;-60
2021/12/03 10:42:02;;;;;;;4.97;2.13;;;;;;;2.27;65.80;98505.84;5068872;28;20555;-60
2021/12/03 10:44:44;;;;;;;3.60;2.53;;;;;;;2.37;65.67;98506.88;5073749;28;20194;-60
2021/12/03 10:47:22;;;;;;;4.70;2.30;;;;;;;2.46;64.44;98519.16;5073604;28;20187;-59
2021/12/03 10:50:10;;;;;;;2.73;1.70;;;;;;;2.36;63.70;98516.38;5072721;28;20275;-60
2021/12/03 10:52:51;;;;;;;6.63;2.33;;;;;;;2.39;65.54;98514.53;5071359;28;20701;-59
2021/12/03 10:55:59;;;;;;;4.93;2.00;;;;;;;2.55;65.15;98507.44;5071471;28;20244;-60
2021/12/03 10:58:47;;;;;;;3.00;1.87;;;;;;;2.86;65.53;98509.69;5072017;28;20942;-59
2021/12/03 11:07:37;;;;;;;4.23;1.87;;;;;;;3.66;61.77;98511.03;5070040;28;20199;-60
2021/12/03 11:16:39;;;;;;;3.97;2.33;;;;;;;3.37;63.21;98506.19;5073296;28;20635;-58
2021/12/03 11:30:27;;;;;;;4.50;2.60;;;;;;;4.83;57.72;98493.81;5070193;28;20638;-53
2021/12/03 13:21:22;;;;;;;2.87;1.57;;;;;;;3.49;60.19;98396.09;5056709;28;20229;-54
2021/12/03 14:00:32;;;;;;;9.03;4.27;;;;;;;3.33;61.90;98370.59;5070927;28;20214;-57
2021/12/03 14:40:35;;;;;;;3.23;1.70;;;;;;;3.01;62.22;98319.56;4989796;28;20221;-57
2021/12/03 14:46:05;;;;;;;27.77;18.23;;;;;;;2.77;62.06;98310.91;5046867;28;20509;-57
2021/12/03 14:49:08;;;;;;;4.27;2.40;;;;;;;2.71;63.42;98313.91;5072634;28;20194;-57
2021/12/03 14:54:30;;;;;;;5.30;2.00;;;;;;;2.65;62.64;98315.16;5047669;28;20226;-57
2021/12/03 14:57:21;;;;;;;4.80;1.87;;;;;;;2.61;64.48;98306.03;5053246;28;20569;-57
2021/12/03 15:00:04;;;;;;;3.17;1.57;;;;;;;2.45;62.66;98315.75;5068476;28;20691;-57
2021/12/03 15:02:42;;;;;;;7.53;2.30;;;;;;;2.32;62.95;98297.72;5079592;28;20198;-57
2021/12/03 15:08:01;;;;;;;5.13;2.00;;;;;;;2.15;63.81;98311.78;5047392;28;20203;-57
2021/12/03 15:10:37;;;;;;;4.93;3.17;;;;;;;2.09;64.93;98301.91;5051967;28;20218;-55
2021/12/03 15:27:21;;;;;;;6.20;2.60;;;;;;;1.99;64.76;98281.13;5088707;28;20186;-57
2021/12/03 15:32:44;;;;;;;5.70;2.50;;;;;;;1.92;65.65;98278.13;5069048;28;20210;-56
2021/12/03 15:35:14;;;;;;;4.13;2.30;;;;;;;1.81;67.65;98294.31;5085623;28;20202;-56
2021/12/03 15:52:16;;;;;;;7.23;3.70;;;;;;;1.50;67.63;98260.34;5081592;28;20217;-58
2021/12/03 15:55:15;;;;;;;15.77;8.30;;;;;;;1.49;67.97;98260.44;5067011;28;20202;-56
2021/12/03 16:08:41;;;;;;;5.17;3.70;;;;;;;1.60;68.14;98250.25;5079698;28;20182;-58
2021/12/03 16:11:20;;;;;;;10.00;3.67;;;;;;;1.62;67.22;98248.38;5076805;28;20205;-58
2021/12/03 16:13:52;;;;;;;5.00;2.80;;;;;;;1.64;68.16;98243.16;5077878;28;20246;-59
2021/12/03 16:16:44;;;;;;;7.87;4.37;;;;;;;1.63;68.36;98237.16;5076362;28;20274;-58
2021/12/03 16:19:32;;;;;;;6.27;3.73;;;;;;;1.61;68.01;98233.88;5079326;28;20198;-62
2021/12/03 16:22:24;;;;;;;8.67;4.10;;;;;;;1.65;67.10;98231.94;5076910;28;20179;-56
2021/12/03 16:31:02;;;;;;;7.20;3.10;;;;;;;1.71;67.39;98231.53;5086517;28;20737;-57
2021/12/03 16:44:59;;;;;;;8.60;5.43;;;;;;;1.92;65.94;98181.16;5031150;28;20191;-54
2021/12/03 16:50:44;;;;;;;6.00;2.30;;;;;;;1.98;63.46;98185.03;5072177;28;20211;-57
2021/12/03 16:53:18;;;;;;;5.40;3.87;;;;;;;2.02;65.06;98177.94;5073223;28;20221;-56